sensor_id;sensor_type;location;lat;lon;timestamp;temperature;humidity
43541;DHT22;29549;40.386;-3.710;2023-04-28T00:03:18;22.30;36.50
43541;DHT22;29549;40.386;-3.710;2023-04-28T00:13:19;22.20;36.90
43541;DHT22;29549;40.386;-3.710;2023-04-28T00:23:20;21.90;37.30
43541;DHT22;29549;40.386;-3.710;2023-04-28T00:33:22;21.70;37.60
43541;DHT22;29549;40.386;-3.710;2023-04-28T00:43:23;21.70;37.70
43541;DHT22;29549;40.386;-3.710;2023-04-28T00:53:25;21.40;38.00
43541;DHT22;29549;40.386;-3.710;2023-04-28T01:03:26;21.30;38.40
43541;DHT22;29549;40.386;-3.710;2023-04-28T01:13:27;21.10;38.90
43541;DHT22;29549;40.386;-3.710;2023-04-28T01:23:29;21.00;39.20
43541;DHT22;29549;40.386;-3.710;2023-04-28T01:33:31;20.70;39.60
43541;DHT22;29549;40.386;-3.710;2023-04-28T01:43:33;20.60;40.40
43541;DHT22;29549;40.386;-3.710;2023-04-28T01:53:34;20.60;40.60
43541;DHT22;29549;40.386;-3.710;2023-04-28T02:03:36;20.40;41.00
43541;DHT22;29549;40.386;-3.710;2023-04-28T02:13:37;20.30;41.40
43541;DHT22;29549;40.386;-3.710;2023-04-28T02:23:39;20.10;41.60
43541;DHT22;29549;40.386;-3.710;2023-04-28T02:33:40;20.00;41.90
43541;DHT22;29549;40.386;-3.710;2023-04-28T02:43:44;19.90;42.10
43541;DHT22;29549;40.386;-3.710;2023-04-28T02:53:46;19.90;41.90
43541;DHT22;29549;40.386;-3.710;2023-04-28T03:03:47;19.90;42.10
43541;DHT22;29549;40.386;-3.710;2023-04-28T03:13:49;19.80;42.20
43541;DHT22;29549;40.386;-3.710;2023-04-28T03:23:50;19.80;42.40
43541;DHT22;29549;40.386;-3.710;2023-04-28T03:33:51;19.90;42.00
43541;DHT22;29549;40.386;-3.710;2023-04-28T03:43:53;19.90;42.40
43541;DHT22;29549;40.386;-3.710;2023-04-28T03:53:56;19.70;43.10
43541;DHT22;29549;40.386;-3.710;2023-04-28T04:03:58;19.60;42.90
43541;DHT22;29549;40.386;-3.710;2023-04-28T04:13:59;19.60;42.80
43541;DHT22;29549;40.386;-3.710;2023-04-28T04:24:01;19.70;43.20
43541;DHT22;29549;40.386;-3.710;2023-04-28T04:34:02;19.40;43.80
43541;DHT22;29549;40.386;-3.710;2023-04-28T04:44:03;19.30;43.80
43541;DHT22;29549;40.386;-3.710;2023-04-28T04:54:05;19.20;43.80
43541;DHT22;29549;40.386;-3.710;2023-04-28T05:04:07;19.20;43.70
43541;DHT22;29549;40.386;-3.710;2023-04-28T05:14:08;19.30;43.50
43541;DHT22;29549;40.386;-3.710;2023-04-28T05:24:09;19.40;43.10
43541;DHT22;29549;40.386;-3.710;2023-04-28T05:34:11;19.60;43.10
43541;DHT22;29549;40.386;-3.710;2023-04-28T05:44:12;19.70;42.90
43541;DHT22;29549;40.386;-3.710;2023-04-28T05:54:13;19.80;42.90
43541;DHT22;29549;40.386;-3.710;2023-04-28T06:04:15;19.90;42.90
43541;DHT22;29549;40.386;-3.710;2023-04-28T06:14:16;20.00;43.30
43541;DHT22;29549;40.386;-3.710;2023-04-28T06:24:18;20.00;43.30
43541;DHT22;29549;40.386;-3.710;2023-04-28T06:34:19;20.00;43.80
43541;DHT22;29549;40.386;-3.710;2023-04-28T06:44:21;20.20;42.60
43541;DHT22;29549;40.386;-3.710;2023-04-28T06:54:22;20.40;42.30
43541;DHT22;29549;40.386;-3.710;2023-04-28T07:04:23;20.70;41.70
43541;DHT22;29549;40.386;-3.710;2023-04-28T07:14:24;20.90;40.40
43541;DHT22;29549;40.386;-3.710;2023-04-28T07:24:26;21.20;39.00
43541;DHT22;29549;40.386;-3.710;2023-04-28T07:34:28;21.30;38.60
43541;DHT22;29549;40.386;-3.710;2023-04-28T07:44:29;21.50;38.40
43541;DHT22;29549;40.386;-3.710;2023-04-28T07:54:30;21.90;38.20
43541;DHT22;29549;40.386;-3.710;2023-04-28T08:04:31;22.20;38.00
43541;DHT22;29549;40.386;-3.710;2023-04-28T08:14:34;22.50;38.00
43541;DHT22;29549;40.386;-3.710;2023-04-28T08:24:35;22.80;37.30
43541;DHT22;29549;40.386;-3.710;2023-04-28T08:34:37;23.10;37.00
43541;DHT22;29549;40.386;-3.710;2023-04-28T08:44:38;23.30;37.00
43541;DHT22;29549;40.386;-3.710;2023-04-28T08:54:40;23.60;36.60
43541;DHT22;29549;40.386;-3.710;2023-04-28T09:04:41;23.70;36.80
43541;DHT22;29549;40.386;-3.710;2023-04-28T09:14:43;24.10;36.20
43541;DHT22;29549;40.386;-3.710;2023-04-28T09:24:44;24.50;35.80
43541;DHT22;29549;40.386;-3.710;2023-04-28T09:34:47;24.60;35.90
43541;DHT22;29549;40.386;-3.710;2023-04-28T09:44:52;24.70;35.70
43541;DHT22;29549;40.386;-3.710;2023-04-28T09:54:54;24.90;35.60
43541;DHT22;29549;40.386;-3.710;2023-04-28T10:04:56;25.30;35.20
43541;DHT22;29549;40.386;-3.710;2023-04-28T10:14:57;25.00;36.10
43541;DHT22;29549;40.386;-3.710;2023-04-28T10:55:40;26.40;33.90
43541;DHT22;29549;40.386;-3.710;2023-04-28T11:06:11;26.70;33.30
43541;DHT22;29549;40.386;-3.710;2023-04-28T11:16:03;27.40;32.30
43541;DHT22;29549;40.386;-3.710;2023-04-28T11:26:05;27.70;31.70
43541;DHT22;29549;40.386;-3.710;2023-04-28T11:36:06;28.10;29.90
43541;DHT22;29549;40.386;-3.710;2023-04-28T11:46:07;28.80;28.50
43541;DHT22;29549;40.386;-3.710;2023-04-28T11:56:09;29.00;27.50
43541;DHT22;29549;40.386;-3.710;2023-04-28T12:06:10;29.20;28.20
43541;DHT22;29549;40.386;-3.710;2023-04-28T12:16:12;29.40;26.80
43541;DHT22;29549;40.386;-3.710;2023-04-28T12:26:13;29.70;26.50
43541;DHT22;29549;40.386;-3.710;2023-04-28T12:36:25;29.70;26.70
43541;DHT22;29549;40.386;-3.710;2023-04-28T12:46:26;29.80;25.60
43541;DHT22;29549;40.386;-3.710;2023-04-28T12:56:27;30.20;25.50
43541;DHT22;29549;40.386;-3.710;2023-04-28T13:06:29;30.30;24.20
43541;DHT22;29549;40.386;-3.710;2023-04-28T13:16:30;30.40;23.70
43541;DHT22;29549;40.386;-3.710;2023-04-28T13:26:31;30.60;22.70
43541;DHT22;29549;40.386;-3.710;2023-04-28T13:36:33;30.60;22.60
43541;DHT22;29549;40.386;-3.710;2023-04-28T13:46:34;30.60;21.40
43541;DHT22;29549;40.386;-3.710;2023-04-28T13:56:35;31.00;21.30
43541;DHT22;29549;40.386;-3.710;2023-04-28T14:06:37;30.70;21.50
43541;DHT22;29549;40.386;-3.710;2023-04-28T14:16:38;30.60;21.70
43541;DHT22;29549;40.386;-3.710;2023-04-28T14:26:39;30.40;21.80
43541;DHT22;29549;40.386;-3.710;2023-04-28T14:36:43;30.60;22.10
43541;DHT22;29549;40.386;-3.710;2023-04-28T14:46:44;30.40;22.50
43541;DHT22;29549;40.386;-3.710;2023-04-28T14:56:49;30.40;22.90
43541;DHT22;29549;40.386;-3.710;2023-04-28T15:06:50;30.40;22.90
43541;DHT22;29549;40.386;-3.710;2023-04-28T15:16:52;30.60;23.00
43541;DHT22;29549;40.386;-3.710;2023-04-28T15:26:53;30.80;22.90
43541;DHT22;29549;40.386;-3.710;2023-04-28T15:36:55;31.10;22.30
43541;DHT22;29549;40.386;-3.710;2023-04-28T15:46:56;30.90;22.90
43541;DHT22;29549;40.386;-3.710;2023-04-28T15:56:57;30.50;24.40
43541;DHT22;29549;40.386;-3.710;2023-04-28T16:06:59;30.30;24.10
43541;DHT22;29549;40.386;-3.710;2023-04-28T16:17:02;30.10;24.20
43541;DHT22;29549;40.386;-3.710;2023-04-28T16:27:04;29.80;24.70
43541;DHT22;29549;40.386;-3.710;2023-04-28T16:37:06;29.60;24.90
43541;DHT22;29549;40.386;-3.710;2023-04-28T16:47:07;29.60;24.40
43541;DHT22;29549;40.386;-3.710;2023-04-28T16:57:08;29.40;23.70
43541;DHT22;29549;40.386;-3.710;2023-04-28T17:07:10;29.30;24.00
43541;DHT22;29549;40.386;-3.710;2023-04-28T17:17:11;29.30;24.10
43541;DHT22;29549;40.386;-3.710;2023-04-28T17:27:12;29.20;24.90
43541;DHT22;29549;40.386;-3.710;2023-04-28T17:37:14;29.40;24.70
43541;DHT22;29549;40.386;-3.710;2023-04-28T17:47:15;29.60;25.20
43541;DHT22;29549;40.386;-3.710;2023-04-28T17:57:17;29.40;24.90
43541;DHT22;29549;40.386;-3.710;2023-04-28T18:07:19;29.10;25.40
43541;DHT22;29549;40.386;-3.710;2023-04-28T18:17:20;29.10;25.50
43541;DHT22;29549;40.386;-3.710;2023-04-28T18:27:23;29.00;25.70
43541;DHT22;29549;40.386;-3.710;2023-04-28T18:37:24;28.90;25.90
43541;DHT22;29549;40.386;-3.710;2023-04-28T18:47:25;28.70;26.30
43541;DHT22;29549;40.386;-3.710;2023-04-28T18:57:27;28.50;26.80
43541;DHT22;29549;40.386;-3.710;2023-04-28T19:07:28;28.30;26.80
43541;DHT22;29549;40.386;-3.710;2023-04-28T19:17:29;28.10;26.80
43541;DHT22;29549;40.386;-3.710;2023-04-28T19:27:32;28.00;27.10
43541;DHT22;29549;40.386;-3.710;2023-04-28T19:37:34;27.80;27.40
43541;DHT22;29549;40.386;-3.710;2023-04-28T19:47:36;27.70;27.50
43541;DHT22;29549;40.386;-3.710;2023-04-28T19:57:37;27.60;27.60
43541;DHT22;29549;40.386;-3.710;2023-04-28T20:07:39;27.40;27.70
43541;DHT22;29549;40.386;-3.710;2023-04-28T20:17:41;27.20;27.90
43541;DHT22;29549;40.386;-3.710;2023-04-28T20:27:42;27.10;28.20
43541;DHT22;29549;40.386;-3.710;2023-04-28T20:37:45;27.00;27.80
43541;DHT22;29549;40.386;-3.710;2023-04-28T20:47:46;26.80;28.00
43541;DHT22;29549;40.386;-3.710;2023-04-28T20:57:48;26.80;28.00
43541;DHT22;29549;40.386;-3.710;2023-04-28T21:07:49;26.70;27.90
43541;DHT22;29549;40.386;-3.710;2023-04-28T21:17:50;26.60;28.00
43541;DHT22;29549;40.386;-3.710;2023-04-28T21:27:51;26.60;28.00
43541;DHT22;29549;40.386;-3.710;2023-04-28T21:37:53;26.60;29.10
43541;DHT22;29549;40.386;-3.710;2023-04-28T21:47:54;26.40;29.50
43541;DHT22;29549;40.386;-3.710;2023-04-28T21:57:56;26.30;29.80
43541;DHT22;29549;40.386;-3.710;2023-04-28T22:08:00;26.10;30.20
43541;DHT22;29549;40.386;-3.710;2023-04-28T22:18:01;25.90;30.60
43541;DHT22;29549;40.386;-3.710;2023-04-28T22:28:02;25.70;30.50
43541;DHT22;29549;40.386;-3.710;2023-04-28T22:38:04;25.60;31.30
43541;DHT22;29549;40.386;-3.710;2023-04-28T22:48:06;25.40;31.90
43541;DHT22;29549;40.386;-3.710;2023-04-28T22:58:07;25.20;32.60
43541;DHT22;29549;40.386;-3.710;2023-04-28T23:08:08;25.20;32.90
43541;DHT22;29549;40.386;-3.710;2023-04-28T23:18:10;25.10;32.60
43541;DHT22;29549;40.386;-3.710;2023-04-28T23:28:11;24.90;33.90
43541;DHT22;29549;40.386;-3.710;2023-04-28T23:38:13;24.60;35.80
43541;DHT22;29549;40.386;-3.710;2023-04-28T23:48:14;24.30;36.00
43541;DHT22;29549;40.386;-3.710;2023-04-28T23:58:15;24.20;36.30
